sensor_id;sensor_type;location;lat;lon;timestamp;pressure;altitude;pressure_sealevel;temperature;humidity
70521;BME280;58442;52.716;23.560;2023-08-01T00:01:21;100680.77;;;17.80;65.80
70521;BME280;58442;52.716;23.560;2023-08-01T00:03:22;100665.84;;;17.81;65.69
70521;BME280;58442;52.716;23.560;2023-08-01T00:05:32;100669.77;;;17.80;65.65
70521;BME280;58442;52.716;23.560;2023-08-01T00:07:33;100664.67;;;17.74;65.74
70521;BME280;58442;52.716;23.560;2023-08-01T00:09:35;100659.20;;;17.71;65.85
70521;BME280;58442;52.716;23.560;2023-08-01T00:11:36;100661.52;;;17.69;65.83
70521;BME280;58442;52.716;23.560;2023-08-01T00:13:47;100649.32;;;17.70;65.72
70521;BME280;58442;52.716;23.560;2023-08-01T00:15:48;100649.32;;;17.70;65.71
70521;BME280;58442;52.716;23.560;2023-08-01T00:17:49;100650.96;;;17.71;65.60
70521;BME280;58442;52.716;23.560;2023-08-01T00:19:51;100647.36;;;17.70;65.49
70521;BME280;58442;52.716;23.560;2023-08-01T00:22:02;100648.54;;;17.69;65.44
70521;BME280;58442;52.716;23.560;2023-08-01T00:24:03;100654.07;;;17.66;65.57
70521;BME280;58442;52.716;23.560;2023-08-01T00:26:07;100653.70;;;17.64;65.63
70521;BME280;58442;52.716;23.560;2023-08-01T00:28:08;100653.28;;;17.62;65.64
70521;BME280;58442;52.716;23.560;2023-08-01T00:30:16;100651.72;;;17.61;65.61
70521;BME280;58442;52.716;23.560;2023-08-01T00:32:18;100649.38;;;17.59;65.63
70521;BME280;58442;52.716;23.560;2023-08-01T00:34:19;100647.81;;;17.58;65.57
70521;BME280;58442;52.716;23.560;2023-08-01T00:36:20;100651.75;;;17.57;65.55
70521;BME280;58442;52.716;23.560;2023-08-01T00:38:31;100647.03;;;17.54;65.49
70521;BME280;58442;52.716;23.560;2023-08-01T00:40:34;100640.38;;;17.52;65.58
70521;BME280;58442;52.716;23.560;2023-08-01T00:42:38;100646.27;;;17.46;65.66
70521;BME280;58442;52.716;23.560;2023-08-01T00:44:39;100650.97;;;17.42;65.72
70521;BME280;58442;52.716;23.560;2023-08-01T00:46:46;100646.29;;;17.39;65.79
70521;BME280;58442;52.716;23.560;2023-08-01T00:48:47;100640.41;;;17.37;65.84
70521;BME280;58442;52.716;23.560;2023-08-01T00:50:49;100638.44;;;17.34;65.93
70521;BME280;58442;52.716;23.560;2023-08-01T00:52:52;100641.98;;;17.31;65.92
70521;BME280;58442;52.716;23.560;2023-08-01T00:55:00;100641.57;;;17.29;65.92
70521;BME280;58442;52.716;23.560;2023-08-01T00:57:06;100636.11;;;17.26;66.02
70521;BME280;58442;52.716;23.560;2023-08-01T00:59:07;100630.59;;;17.22;66.00
70521;BME280;58442;52.716;23.560;2023-08-01T01:01:09;100627.47;;;17.20;66.03
70521;BME280;58442;52.716;23.560;2023-08-01T01:03:16;100625.54;;;17.17;66.07
70521;BME280;58442;52.716;23.560;2023-08-01T01:05:19;100621.22;;;17.12;66.14
70521;BME280;58442;52.716;23.560;2023-08-01T01:07:22;100624.36;;;17.11;66.20
70521;BME280;58442;52.716;23.560;2023-08-01T01:09:28;100623.56;;;17.07;66.26
70521;BME280;58442;52.716;23.560;2023-08-01T01:11:32;100623.59;;;17.03;66.32
70521;BME280;58442;52.716;23.560;2023-08-01T01:13:33;100629.85;;;17.00;66.39
70521;BME280;58442;52.716;23.560;2023-08-01T01:15:35;100626.71;;;16.94;66.46
70521;BME280;58442;52.716;23.560;2023-08-01T01:17:36;100638.49;;;16.91;66.55
70521;BME280;58442;52.716;23.560;2023-08-01T01:19:45;100630.64;;;16.86;66.67
70521;BME280;58442;52.716;23.560;2023-08-01T01:21:47;100633.78;;;16.85;66.71
70521;BME280;58442;52.716;23.560;2023-08-01T01:23:56;100631.44;;;16.83;66.78
70521;BME280;58442;52.716;23.560;2023-08-01T01:26:04;100631.44;;;16.83;66.78
70521;BME280;58442;52.716;23.560;2023-08-01T01:28:08;100629.09;;;16.82;66.78
70521;BME280;58442;52.716;23.560;2023-08-01T01:30:22;100627.50;;;16.81;66.80
70521;BME280;58442;52.716;23.560;2023-08-01T01:32:23;100627.90;;;16.79;66.82
70521;BME280;58442;52.716;23.560;2023-08-01T01:34:24;100634.57;;;16.78;66.71
70521;BME280;58442;52.716;23.560;2023-08-01T01:36:26;100622.80;;;16.78;66.62
70521;BME280;58442;52.716;23.560;2023-08-01T01:38:36;100634.59;;;16.75;66.62
70521;BME280;58442;52.716;23.560;2023-08-01T01:40:37;100626.71;;;16.73;66.64
70521;BME280;58442;52.716;23.560;2023-08-01T01:42:38;100622.80;;;16.71;66.64
70521;BME280;58442;52.716;23.560;2023-08-01T01:44:39;100625.91;;;16.69;66.63
70521;BME280;58442;52.716;23.560;2023-08-01T01:46:50;100622.75;;;16.67;66.67
70521;BME280;58442;52.716;23.560;2023-08-01T01:48:52;100620.41;;;16.65;66.73
70521;BME280;58442;52.716;23.560;2023-08-01T01:50:53;100626.69;;;16.62;66.80
70521;BME280;58442;52.716;23.560;2023-08-01T01:52:54;100617.26;;;16.60;66.88
70521;BME280;58442;52.716;23.560;2023-08-01T01:55:05;100625.52;;;16.56;67.00
70521;BME280;58442;52.716;23.560;2023-08-01T01:57:07;100624.70;;;16.52;67.15
70521;BME280;58442;52.716;23.560;2023-08-01T01:59:08;100619.23;;;16.49;67.15
70521;BME280;58442;52.716;23.560;2023-08-01T02:01:09;100621.98;;;16.49;67.12
70521;BME280;58442;52.716;23.560;2023-08-01T02:03:20;100614.93;;;16.48;67.12
70521;BME280;58442;52.716;23.560;2023-08-01T02:05:21;100610.59;;;16.47;67.17
70521;BME280;58442;52.716;23.560;2023-08-01T02:07:22;100612.56;;;16.43;67.29
70521;BME280;58442;52.716;23.560;2023-08-01T02:09:24;100611.76;;;16.38;67.47
70521;BME280;58442;52.716;23.560;2023-08-01T02:11:35;100599.60;;;16.32;67.69
70521;BME280;58442;52.716;23.560;2023-08-01T02:13:36;100601.16;;;16.26;67.90
70521;BME280;58442;52.716;23.560;2023-08-01T02:15:37;100597.64;;;16.22;68.09
70521;BME280;58442;52.716;23.560;2023-08-01T02:17:39;100601.15;;;16.19;68.19
70521;BME280;58442;52.716;23.560;2023-08-01T02:19:49;100605.06;;;16.18;68.29
70521;BME280;58442;52.716;23.560;2023-08-01T02:21:51;100607.80;;;16.18;68.39
70521;BME280;58442;52.716;23.560;2023-08-01T02:23:52;100604.70;;;16.20;68.40
70521;BME280;58442;52.716;23.560;2023-08-01T02:25:53;100601.15;;;16.19;68.35
70521;BME280;58442;52.716;23.560;2023-08-01T02:28:04;100600.36;;;16.19;68.40
70521;BME280;58442;52.716;23.560;2023-08-01T02:30:06;100587.82;;;16.18;68.43
70521;BME280;58442;52.716;23.560;2023-08-01T02:32:08;100593.71;;;16.16;68.49
70521;BME280;58442;52.716;23.560;2023-08-01T02:34:09;100599.97;;;16.17;68.52
70521;BME280;58442;52.716;23.560;2023-08-01T02:36:19;100597.62;;;16.15;68.62
70521;BME280;58442;52.716;23.560;2023-08-01T02:38:20;100601.55;;;16.14;68.64
70521;BME280;58442;52.716;23.560;2023-08-01T02:40:22;100604.29;;;16.14;68.68
70521;BME280;58442;52.716;23.560;2023-08-01T02:42:23;100596.82;;;16.11;68.73
70521;BME280;58442;52.716;23.560;2023-08-01T02:44:34;100590.55;;;16.07;68.88
70521;BME280;58442;52.716;23.560;2023-08-01T02:46:35;100593.68;;;16.02;69.05
70521;BME280;58442;52.716;23.560;2023-08-01T02:48:36;100590.54;;;16.00;69.19
70521;BME280;58442;52.716;23.560;2023-08-01T02:50:38;100585.03;;;15.96;69.24
70521;BME280;58442;52.716;23.560;2023-08-01T02:52:48;100590.13;;;15.94;69.35
70521;BME280;58442;52.716;23.560;2023-08-01T02:54:50;100585.05;;;15.93;69.45
70521;BME280;58442;52.716;23.560;2023-08-01T02:56:51;100583.45;;;15.92;69.47
70521;BME280;58442;52.716;23.560;2023-08-01T02:58:52;100594.41;;;15.92;69.48
70521;BME280;58442;52.716;23.560;2023-08-01T03:01:07;100581.88;;;15.91;69.54
70521;BME280;58442;52.716;23.560;2023-08-01T03:03:12;100585.80;;;15.90;69.61
70521;BME280;58442;52.716;23.560;2023-08-01T03:05:14;100576.79;;;15.89;69.64
70521;BME280;58442;52.716;23.560;2023-08-01T03:07:15;100572.88;;;15.86;69.68
70521;BME280;58442;52.716;23.560;2023-08-01T03:09:18;100569.35;;;15.86;69.72
70521;BME280;58442;52.716;23.560;2023-08-01T03:11:20;100568.58;;;15.85;69.76
70521;BME280;58442;52.716;23.560;2023-08-01T03:13:21;100570.50;;;15.85;69.78
70521;BME280;58442;52.716;23.560;2023-08-01T03:15:22;100568.58;;;15.85;69.81
70521;BME280;58442;52.716;23.560;2023-08-01T03:17:33;100567.77;;;15.85;69.84
70521;BME280;58442;52.716;23.560;2023-08-01T03:19:34;100566.98;;;15.84;69.88
70521;BME280;58442;52.716;23.560;2023-08-01T03:21:35;100560.72;;;15.84;69.92
70521;BME280;58442;52.716;23.560;2023-08-01T03:23:37;100556.02;;;15.84;69.92
70521;BME280;58442;52.716;23.560;2023-08-01T03:25:48;100555.65;;;15.86;69.96
70521;BME280;58442;52.716;23.560;2023-08-01T03:27:49;100560.35;;;15.85;69.99
70521;BME280;58442;52.716;23.560;2023-08-01T03:29:50;100563.09;;;15.85;70.03
70521;BME280;58442;52.716;23.560;2023-08-01T03:31:52;100552.13;;;15.85;70.06
70521;BME280;58442;52.716;23.560;2023-08-01T03:34:03;100550.55;;;15.88;70.10
70521;BME280;58442;52.716;23.560;2023-08-01T03:36:04;100551.34;;;15.89;70.17
70521;BME280;58442;52.716;23.560;2023-08-01T03:38:05;100550.55;;;15.92;70.16
70521;BME280;58442;52.716;23.560;2023-08-01T03:40:07;100543.53;;;15.94;70.16
70521;BME280;58442;52.716;23.560;2023-08-01T03:42:17;100544.70;;;15.97;70.16
70521;BME280;58442;52.716;23.560;2023-08-01T03:44:18;100542.76;;;16.01;70.21
70521;BME280;58442;52.716;23.560;2023-08-01T03:46:20;100543.15;;;16.03;70.22
70521;BME280;58442;52.716;23.560;2023-08-01T03:48:21;100549.80;;;16.05;70.22
70521;BME280;58442;52.716;23.560;2023-08-01T03:50:32;100538.07;;;16.08;70.26
70521;BME280;58442;52.716;23.560;2023-08-01T03:52:33;100534.93;;;16.10;70.33
70521;BME280;58442;52.716;23.560;2023-08-01T03:54:35;100534.95;;;16.13;70.35
70521;BME280;58442;52.716;23.560;2023-08-01T03:56:36;100538.07;;;16.16;70.34
70521;BME280;58442;52.716;23.560;2023-08-01T03:58:47;100532.58;;;16.19;70.36
70521;BME280;58442;52.716;23.560;2023-08-01T04:00:48;100530.26;;;16.21;70.39
70521;BME280;58442;52.716;23.560;2023-08-01T04:02:49;100523.98;;;16.24;70.40
70521;BME280;58442;52.716;23.560;2023-08-01T04:04:51;100516.95;;;16.27;70.36
70521;BME280;58442;52.716;23.560;2023-08-01T04:07:01;100523.98;;;16.31;70.33
70521;BME280;58442;52.716;23.560;2023-08-01T04:09:03;100524.00;;;16.35;70.36
70521;BME280;58442;52.716;23.560;2023-08-01T04:11:04;100523.98;;;16.38;70.35
70521;BME280;58442;52.716;23.560;2023-08-01T04:13:06;100523.59;;;16.44;70.30
70521;BME280;58442;52.716;23.560;2023-08-01T04:15:16;100515.39;;;16.47;70.30
70521;BME280;58442;52.716;23.560;2023-08-01T04:17:18;100525.56;;;16.50;70.31
70521;BME280;58442;52.716;23.560;2023-08-01T04:19:19;100514.57;;;16.54;70.31
70521;BME280;58442;52.716;23.560;2023-08-01T04:21:21;100517.72;;;16.56;70.30
70521;BME280;58442;52.716;23.560;2023-08-01T04:23:31;100519.66;;;16.59;70.33
70521;BME280;58442;52.716;23.560;2023-08-01T04:25:32;100518.90;;;16.62;70.39
70521;BME280;58442;52.716;23.560;2023-08-01T04:27:34;100515.73;;;16.67;70.39
70521;BME280;58442;52.716;23.560;2023-08-01T04:29:35;100516.56;;;16.71;70.33
70521;BME280;58442;52.716;23.560;2023-08-01T04:31:46;100511.86;;;16.75;70.34
70521;BME280;58442;52.716;23.560;2023-08-01T04:33:47;100514.58;;;16.79;70.37
70521;BME280;58442;52.716;23.560;2023-08-01T04:35:48;100509.09;;;16.82;70.38
70521;BME280;58442;52.716;23.560;2023-08-01T04:37:50;100507.11;;;16.86;70.35
70521;BME280;58442;52.716;23.560;2023-08-01T04:40:01;100505.15;;;16.90;70.39
70521;BME280;58442;52.716;23.560;2023-08-01T04:42:03;100509.84;;;16.93;70.42
70521;BME280;58442;52.716;23.560;2023-08-01T04:44:04;100514.93;;;16.99;70.40
70521;BME280;58442;52.716;23.560;2023-08-01T04:46:07;100508.27;;;17.03;70.36
70521;BME280;58442;52.716;23.560;2023-08-01T04:48:15;100514.13;;;17.09;70.34
70521;BME280;58442;52.716;23.560;2023-08-01T04:50:17;100518.42;;;17.13;70.37
70521;BME280;58442;52.716;23.560;2023-08-01T04:52:18;100513.70;;;17.17;70.38
70521;BME280;58442;52.716;23.560;2023-08-01T04:54:19;100515.24;;;17.22;70.35
70521;BME280;58442;52.716;23.560;2023-08-01T04:56:30;100516.40;;;17.28;70.36
70521;BME280;58442;52.716;23.560;2023-08-01T04:58:31;100525.80;;;17.34;70.39
70521;BME280;58442;52.716;23.560;2023-08-01T05:00:33;100526.96;;;17.40;70.34
70521;BME280;58442;52.716;23.560;2023-08-01T05:02:34;100523.80;;;17.45;70.28
70521;BME280;58442;52.716;23.560;2023-08-01T05:04:45;100517.90;;;17.50;70.24
70521;BME280;58442;52.716;23.560;2023-08-01T05:06:46;100519.83;;;17.54;70.27
70521;BME280;58442;52.716;23.560;2023-08-01T05:08:47;100519.02;;;17.57;70.26
70521;BME280;58442;52.716;23.560;2023-08-01T05:10:49;100525.30;;;17.61;70.22
70521;BME280;58442;52.716;23.560;2023-08-01T05:12:59;100523.32;;;17.65;70.24
70521;BME280;58442;52.716;23.560;2023-08-01T05:15:01;100510.33;;;17.69;70.22
70521;BME280;58442;52.716;23.560;2023-08-01T05:17:02;100511.54;;;17.71;70.15
70521;BME280;58442;52.716;23.560;2023-08-01T05:19:04;100509.95;;;17.74;70.21
70521;BME280;58442;52.716;23.560;2023-08-01T05:21:14;100515.03;;;17.79;70.20
70521;BME280;58442;52.716;23.560;2023-08-01T05:23:16;100516.55;;;17.84;70.21
70521;BME280;58442;52.716;23.560;2023-08-01T05:25:17;100518.11;;;17.88;70.19
70521;BME280;58442;52.716;23.560;2023-08-01T05:27:18;100515.72;;;17.94;70.17
70521;BME280;58442;52.716;23.560;2023-08-01T05:29:29;100510.95;;;18.01;70.11
70521;BME280;58442;52.716;23.560;2023-08-01T05:31:30;100523.47;;;18.10;70.20
70521;BME280;58442;52.716;23.560;2023-08-01T05:33:32;100520.25;;;18.18;70.05
70521;BME280;58442;52.716;23.560;2023-08-01T05:35:33;100517.06;;;18.27;69.96
70521;BME280;58442;52.716;23.560;2023-08-01T05:37:44;100514.63;;;18.36;69.88
70521;BME280;58442;52.716;23.560;2023-08-01T05:39:45;100513.77;;;18.46;69.84
70521;BME280;58442;52.716;23.560;2023-08-01T05:41:46;100513.66;;;18.57;69.75
70521;BME280;58442;52.716;23.560;2023-08-01T05:43:49;100517.13;;;18.68;69.64
70521;BME280;58442;52.716;23.560;2023-08-01T05:45:58;100518.96;;;18.82;69.52
70521;BME280;58442;52.716;23.560;2023-08-01T05:48:01;100517.64;;;18.94;69.38
70521;BME280;58442;52.716;23.560;2023-08-01T05:50:03;100520.30;;;19.04;69.25
70521;BME280;58442;52.716;23.560;2023-08-01T05:52:05;100508.00;;;19.12;69.17
70521;BME280;58442;52.716;23.560;2023-08-01T05:54:13;100503.57;;;19.22;69.04
70521;BME280;58442;52.716;23.560;2023-08-01T05:56:14;100505.83;;;19.31;68.93
70521;BME280;58442;52.716;23.560;2023-08-01T05:58:16;100510.05;;;19.39;68.80
70521;BME280;58442;52.716;23.560;2023-08-01T06:00:18;100500.13;;;19.45;68.69
70521;BME280;58442;52.716;23.560;2023-08-01T06:02:28;100501.17;;;19.55;68.59
70521;BME280;58442;52.716;23.560;2023-08-01T06:04:29;100495.55;;;19.65;68.44
70521;BME280;58442;52.716;23.560;2023-08-01T06:06:30;100487.93;;;19.77;68.20
70521;BME280;58442;52.716;23.560;2023-08-01T06:08:32;100494.83;;;19.88;68.02
70521;BME280;58442;52.716;23.560;2023-08-01T06:10:43;100488.38;;;19.99;67.90
70521;BME280;58442;52.716;23.560;2023-08-01T06:12:44;100492.94;;;20.09;67.84
70521;BME280;58442;52.716;23.560;2023-08-01T06:14:47;100483.34;;;20.17;67.65
70521;BME280;58442;52.716;23.560;2023-08-01T06:16:49;100489.16;;;20.22;67.57
70521;BME280;58442;52.716;23.560;2023-08-01T06:18:58;100477.66;;;20.28;67.48
70521;BME280;58442;52.716;23.560;2023-08-01T06:21:00;100471.67;;;20.33;67.47
70521;BME280;58442;52.716;23.560;2023-08-01T06:23:03;100478.28;;;20.39;67.34
70521;BME280;58442;52.716;23.560;2023-08-01T06:25:05;100467.91;;;20.46;67.21
70521;BME280;58442;52.716;23.560;2023-08-01T06:27:12;100465.45;;;20.52;67.03
70521;BME280;58442;52.716;23.560;2023-08-01T06:29:15;100466.50;;;20.58;66.93
70521;BME280;58442;52.716;23.560;2023-08-01T06:31:17;100466.09;;;20.60;66.90
70521;BME280;58442;52.716;23.560;2023-08-01T06:33:18;100458.22;;;20.58;66.91
70521;BME280;58442;52.716;23.560;2023-08-01T06:35:27;100456.23;;;20.59;66.91
70521;BME280;58442;52.716;23.560;2023-08-01T06:37:28;100458.59;;;20.60;66.89
70521;BME280;58442;52.716;23.560;2023-08-01T06:39:30;100458.16;;;20.62;66.81
70521;BME280;58442;52.716;23.560;2023-08-01T06:41:31;100455.74;;;20.64;66.81
70521;BME280;58442;52.716;23.560;2023-08-01T06:43:41;100463.60;;;20.65;66.85
70521;BME280;58442;52.716;23.560;2023-08-01T06:45:43;100463.21;;;20.67;66.87
70521;BME280;58442;52.716;23.560;2023-08-01T06:47:44;100461.15;;;20.71;66.84
70521;BME280;58442;52.716;23.560;2023-08-01T06:49:45;100456.34;;;20.75;66.80
70521;BME280;58442;52.716;23.560;2023-08-01T06:51:56;100459.68;;;20.86;66.70
70521;BME280;58442;52.716;23.560;2023-08-01T06:53:57;100448.84;;;20.95;66.43
70521;BME280;58442;52.716;23.560;2023-08-01T06:55:59;100454.14;;;21.06;66.22
70521;BME280;58442;52.716;23.560;2023-08-01T06:58:00;100446.76;;;21.19;65.92
70521;BME280;58442;52.716;23.560;2023-08-01T07:00:11;100449.77;;;21.28;65.71
70521;BME280;58442;52.716;23.560;2023-08-01T07:02:13;100443.99;;;21.39;65.31
70521;BME280;58442;52.716;23.560;2023-08-01T07:04:16;100449.98;;;21.54;64.97
70521;BME280;58442;52.716;23.560;2023-08-01T07:06:18;100448.11;;;21.67;64.73
70521;BME280;58442;52.716;23.560;2023-08-01T07:08:25;100442.67;;;21.80;64.49
70521;BME280;58442;52.716;23.560;2023-08-01T07:10:27;100438.02;;;21.93;64.10
70521;BME280;58442;52.716;23.560;2023-08-01T07:12:28;100436.90;;;22.07;63.69
70521;BME280;58442;52.716;23.560;2023-08-01T07:14:30;100426.37;;;22.18;63.39
70521;BME280;58442;52.716;23.560;2023-08-01T07:16:40;100423.75;;;22.27;63.12
70521;BME280;58442;52.716;23.560;2023-08-01T07:18:41;100428.24;;;22.37;62.88
70521;BME280;58442;52.716;23.560;2023-08-01T07:22:30;100433.30;;;22.55;62.63
70521;BME280;58442;52.716;23.560;2023-08-01T07:24:32;100429.56;;;22.62;62.48
70521;BME280;58442;52.716;23.560;2023-08-01T07:26:33;100429.81;;;22.68;62.30
70521;BME280;58442;52.716;23.560;2023-08-01T07:28:44;100419.99;;;22.79;61.92
70521;BME280;58442;52.716;23.560;2023-08-01T07:30:46;100431.67;;;22.87;61.67
70521;BME280;58442;52.716;23.560;2023-08-01T07:32:47;100428.34;;;22.92;61.57
70521;BME280;58442;52.716;23.560;2023-08-01T07:34:49;100425.04;;;22.97;61.38
70521;BME280;58442;52.716;23.560;2023-08-01T07:36:59;100425.81;;;22.98;61.28
70521;BME280;58442;52.716;23.560;2023-08-01T07:39:00;100420.74;;;23.09;61.03
70521;BME280;58442;52.716;23.560;2023-08-01T07:41:03;100423.54;;;23.22;60.73
70521;BME280;58442;52.716;23.560;2023-08-01T07:43:05;100411.79;;;23.30;60.36
70521;BME280;58442;52.716;23.560;2023-08-01T07:45:14;100407.70;;;23.35;60.19
70521;BME280;58442;52.716;23.560;2023-08-01T07:47:15;100407.48;;;23.42;59.98
70521;BME280;58442;52.716;23.560;2023-08-01T07:49:16;100406.94;;;23.47;59.85
70521;BME280;58442;52.716;23.560;2023-08-01T07:51:18;100408.03;;;23.50;59.77
70521;BME280;58442;52.716;23.560;2023-08-01T07:53:28;100408.80;;;23.50;59.67
70521;BME280;58442;52.716;23.560;2023-08-01T07:55:33;100405.03;;;23.57;59.30
70521;BME280;58442;52.716;23.560;2023-08-01T07:57:35;100404.06;;;23.63;58.99
70521;BME280;58442;52.716;23.560;2023-08-01T07:59:37;100401.94;;;23.67;58.81
70521;BME280;58442;52.716;23.560;2023-08-01T08:01:43;100402.05;;;23.77;58.54
70521;BME280;58442;52.716;23.560;2023-08-01T08:03:44;100396.13;;;23.87;58.26
70521;BME280;58442;52.716;23.560;2023-08-01T08:05:45;100408.91;;;23.97;58.00
70521;BME280;58442;52.716;23.560;2023-08-01T08:07:47;100397.77;;;24.10;57.73
70521;BME280;58442;52.716;23.560;2023-08-01T08:09:58;100411.48;;;24.26;57.39
70521;BME280;58442;52.716;23.560;2023-08-01T08:11:59;100398.67;;;24.42;57.11
70521;BME280;58442;52.716;23.560;2023-08-01T08:14:00;100395.52;;;24.52;56.72
70521;BME280;58442;52.716;23.560;2023-08-01T08:16:01;100398.25;;;24.65;56.48
70521;BME280;58442;52.716;23.560;2023-08-01T08:18:12;100397.84;;;24.76;56.20
70521;BME280;58442;52.716;23.560;2023-08-01T08:20:13;100394.02;;;24.82;55.85
70521;BME280;58442;52.716;23.560;2023-08-01T08:22:15;100388.38;;;24.95;55.57
70521;BME280;58442;52.716;23.560;2023-08-01T08:24:16;100398.93;;;25.00;55.46
70521;BME280;58442;52.716;23.560;2023-08-01T08:26:27;100393.05;;;24.98;55.55
70521;BME280;58442;52.716;23.560;2023-08-01T08:28:30;100396.27;;;24.97;55.42
70521;BME280;58442;52.716;23.560;2023-08-01T08:30:33;100398.28;;;24.96;55.25
70521;BME280;58442;52.716;23.560;2023-08-01T08:32:35;100401.98;;;24.93;55.13
70521;BME280;58442;52.716;23.560;2023-08-01T08:34:41;100396.61;;;24.99;54.97
70521;BME280;58442;52.716;23.560;2023-08-01T08:36:43;100391.83;;;24.99;54.82
70521;BME280;58442;52.716;23.560;2023-08-01T08:38:44;100379.23;;;25.07;54.61
70521;BME280;58442;52.716;23.560;2023-08-01T08:43:02;100380.59;;;25.34;54.01
70521;BME280;58442;52.716;23.560;2023-08-01T08:45:06;100383.11;;;25.50;53.65
70521;BME280;58442;52.716;23.560;2023-08-01T08:47:11;100382.83;;;25.67;53.27
70521;BME280;58442;52.716;23.560;2023-08-01T08:49:14;100375.49;;;25.82;52.91
70521;BME280;58442;52.716;23.560;2023-08-01T08:51:17;100378.92;;;25.95;52.69
70521;BME280;58442;52.716;23.560;2023-08-01T08:53:19;100373.35;;;25.95;52.67
70521;BME280;58442;52.716;23.560;2023-08-01T08:55:22;100363.28;;;26.07;52.28
70521;BME280;58442;52.716;23.560;2023-08-01T08:57:27;100360.37;;;26.19;51.91
70521;BME280;58442;52.716;23.560;2023-08-01T08:59:30;100355.41;;;26.33;51.69
70521;BME280;58442;52.716;23.560;2023-08-01T09:01:32;100360.55;;;26.43;51.44
70521;BME280;58442;52.716;23.560;2023-08-01T09:03:34;100358.80;;;26.55;51.35
70521;BME280;58442;52.716;23.560;2023-08-01T09:05:45;100356.33;;;26.66;51.09
70521;BME280;58442;52.716;23.560;2023-08-01T09:07:49;100363.74;;;26.79;50.92
70521;BME280;58442;52.716;23.560;2023-08-01T09:10:03;100352.41;;;26.91;50.67
70521;BME280;58442;52.716;23.560;2023-08-01T09:12:05;100349.58;;;27.00;50.57
70521;BME280;58442;52.716;23.560;2023-08-01T09:14:07;100353.12;;;27.10;50.32
70521;BME280;58442;52.716;23.560;2023-08-01T09:16:10;100355.71;;;27.23;50.11
70521;BME280;58442;52.716;23.560;2023-08-01T09:18:17;100343.44;;;27.30;50.02
70521;BME280;58442;52.716;23.560;2023-08-01T09:20:18;100348.09;;;27.33;49.80
70521;BME280;58442;52.716;23.560;2023-08-01T09:22:20;100340.91;;;27.41;49.39
70521;BME280;58442;52.716;23.560;2023-08-01T09:24:21;100340.09;;;27.49;49.19
70521;BME280;58442;52.716;23.560;2023-08-01T09:26:32;100337.23;;;27.59;49.03
70521;BME280;58442;52.716;23.560;2023-08-01T09:28:33;100329.29;;;27.66;48.78
70521;BME280;58442;52.716;23.560;2023-08-01T09:30:49;100329.25;;;27.75;48.41
70521;BME280;58442;52.716;23.560;2023-08-01T09:32:52;100327.83;;;27.80;48.19
70521;BME280;58442;52.716;23.560;2023-08-01T09:34:58;100332.33;;;27.77;48.23
70521;BME280;58442;52.716;23.560;2023-08-01T09:37:08;100326.34;;;27.70;48.31
70521;BME280;58442;52.716;23.560;2023-08-01T09:39:18;100314.02;;;27.76;47.86
70521;BME280;58442;52.716;23.560;2023-08-01T09:41:20;100313.09;;;27.79;47.76
70521;BME280;58442;52.716;23.560;2023-08-01T09:43:21;100316.17;;;27.82;47.66
70521;BME280;58442;52.716;23.560;2023-08-01T09:45:24;100303.09;;;27.88;47.57
70521;BME280;58442;52.716;23.560;2023-08-01T09:47:35;100305.70;;;27.91;47.30
70521;BME280;58442;52.716;23.560;2023-08-01T09:51:50;100305.44;;;28.04;46.87
70521;BME280;58442;52.716;23.560;2023-08-01T09:53:54;100294.85;;;28.08;46.73
70521;BME280;58442;52.716;23.560;2023-08-01T09:56:02;100302.38;;;28.17;46.58
70521;BME280;58442;52.716;23.560;2023-08-01T09:58:04;100287.54;;;28.25;46.31
70521;BME280;58442;52.716;23.560;2023-08-01T10:00:07;100286.12;;;28.30;46.08
70521;BME280;58442;52.716;23.560;2023-08-01T10:02:15;100279.88;;;28.35;45.96
70521;BME280;58442;52.716;23.560;2023-08-01T10:04:23;100282.76;;;28.41;45.81
70521;BME280;58442;52.716;23.560;2023-08-01T10:06:29;100273.41;;;28.44;45.60
70521;BME280;58442;52.716;23.560;2023-08-01T10:08:34;100278.13;;;28.52;45.38
70521;BME280;58442;52.716;23.560;2023-08-01T10:10:36;100268.79;;;28.55;45.06
70521;BME280;58442;52.716;23.560;2023-08-01T10:12:39;100271.38;;;28.59;44.96
70521;BME280;58442;52.716;23.560;2023-08-01T10:14:44;100256.91;;;28.60;44.77
70521;BME280;58442;52.716;23.560;2023-08-01T10:16:46;100262.13;;;28.53;44.82
70521;BME280;58442;52.716;23.560;2023-08-01T10:18:49;100256.81;;;28.55;44.56
70521;BME280;58442;52.716;23.560;2023-08-01T10:20:52;100252.30;;;28.57;44.54
70521;BME280;58442;52.716;23.560;2023-08-01T10:22:54;100246.30;;;28.65;44.31
70521;BME280;58442;52.716;23.560;2023-08-01T10:24:55;100253.25;;;28.69;44.07
70521;BME280;58442;52.716;23.560;2023-08-01T10:26:57;100244.16;;;28.74;44.00
70521;BME280;58442;52.716;23.560;2023-08-01T10:29:06;100239.15;;;28.78;43.82
70521;BME280;58442;52.716;23.560;2023-08-01T10:31:13;100243.29;;;28.83;43.57
70521;BME280;58442;52.716;23.560;2023-08-01T10:33:15;100224.08;;;28.91;43.38
70521;BME280;58442;52.716;23.560;2023-08-01T10:35:17;100229.84;;;29.02;43.22
70521;BME280;58442;52.716;23.560;2023-08-01T10:37:20;100234.06;;;29.12;43.20
70521;BME280;58442;52.716;23.560;2023-08-01T10:39:23;100230.94;;;29.25;42.90
70521;BME280;58442;52.716;23.560;2023-08-01T10:41:33;100223.16;;;29.34;42.59
70521;BME280;58442;52.716;23.560;2023-08-01T10:43:35;100221.47;;;29.22;42.71
70521;BME280;58442;52.716;23.560;2023-08-01T10:45:36;100229.45;;;29.29;42.60